createdAt,value
2023-02-18T00:02:10.929Z,82.77
2023-02-18T00:06:14.635Z,83.00
2023-02-18T00:10:16.328Z,82.48
2023-02-18T00:14:18.057Z,82.92
2023-02-18T00:18:20.782Z,83.01
2023-02-18T00:22:22.315Z,83.71
2023-02-18T00:26:24.242Z,83.59
2023-02-18T00:30:25.645Z,83.65
2023-02-18T00:34:28.358Z,83.63
2023-02-18T00:38:29.835Z,83.27
2023-02-18T00:42:31.180Z,82.78
2023-02-18T00:46:33.084Z,82.79
2023-02-18T00:50:35.799Z,83.39
2023-02-18T00:54:37.145Z,84.07
2023-02-18T00:58:39.073Z,83.90
2023-02-18T01:02:40.453Z,83.71
2023-02-18T01:06:43.182Z,84.01
2023-02-18T01:10:46.941Z,84.24
2023-02-18T01:14:48.370Z,85.15
2023-02-18T01:18:50.064Z,84.63
2023-02-18T01:22:52.790Z,86.12
2023-02-18T01:26:54.196Z,86.50
2023-02-18T01:30:55.669Z,86.57
2023-02-18T01:34:57.208Z,86.58
2023-02-18T01:39:00.464Z,87.90
2023-02-18T01:43:02.563Z,88.65
2023-02-18T01:47:04.063Z,88.15
2023-02-18T01:51:09.952Z,88.94
2023-02-18T01:55:12.798Z,88.57
2023-02-18T01:59:17.822Z,89.26
2023-02-18T02:03:19.231Z,89.74
2023-02-18T02:07:23.466Z,89.48
2023-02-18T02:11:48.361Z,88.63
2023-02-18T02:15:55.210Z,88.62
2023-02-18T02:20:34.923Z,88.69
2023-02-18T02:25:05.692Z,88.49
2023-02-18T02:29:38.674Z,88.43
2023-02-18T02:34:16.326Z,88.20
2023-02-18T02:38:25.354Z,88.43
2023-02-18T02:42:39.615Z,88.00
2023-02-18T02:46:44.960Z,88.34
2023-02-18T02:50:53.782Z,88.43
2023-02-18T02:54:56.624Z,88.22
2023-02-18T02:59:00.993Z,88.03
2023-02-18T03:03:19.794Z,88.11
2023-02-18T03:07:53.920Z,88.38
2023-02-18T03:12:02.849Z,88.39
2023-02-18T03:16:14.477Z,89.15
2023-02-18T03:20:23.559Z,89.65
2023-02-18T03:24:28.935Z,89.46
2023-02-18T03:28:33.504Z,89.76
2023-02-18T03:32:35.544Z,89.71
2023-02-18T03:36:37.268Z,90.29
2023-02-18T03:40:38.870Z,90.76
2023-02-18T03:44:41.561Z,90.91
2023-02-18T03:48:43.489Z,90.45
2023-02-18T03:52:45.002Z,90.64
2023-02-18T03:56:46.360Z,90.02
2023-02-18T04:00:49.080Z,89.64
2023-02-18T04:04:50.455Z,89.31
2023-02-18T04:08:51.822Z,89.27
2023-02-18T04:12:53.282Z,89.41
2023-02-18T04:16:56.108Z,89.29
2023-02-18T04:20:57.573Z,89.04
2023-02-18T04:24:58.955Z,89.13
2023-02-18T04:29:00.501Z,89.29
2023-02-18T04:33:03.500Z,88.99
2023-02-18T04:37:04.936Z,89.42
2023-02-18T04:41:06.305Z,89.59
2023-02-18T04:45:08.790Z,89.59
2023-02-18T04:49:11.595Z,89.85
2023-02-18T04:53:12.982Z,91.00
2023-02-18T04:57:14.618Z,91.74
2023-02-18T05:01:16.065Z,92.72
2023-02-18T05:05:18.900Z,93.58
2023-02-18T05:09:20.398Z,93.45
2023-02-18T05:13:21.806Z,93.58
2023-02-18T05:17:23.489Z,93.90
2023-02-18T05:21:26.589Z,94.39
2023-02-18T05:25:28.038Z,93.87
2023-02-18T05:29:29.489Z,93.46
2023-02-18T05:33:30.907Z,93.30
2023-02-18T05:37:33.762Z,93.37
2023-02-18T05:41:35.140Z,93.83
2023-02-18T05:45:36.853Z,93.79
2023-02-18T05:49:40.161Z,93.81
2023-02-18T05:53:42.926Z,93.52
2023-02-18T05:57:44.373Z,93.02
2023-02-18T06:01:46.417Z,92.19
2023-02-18T06:05:49.749Z,92.47
2023-02-18T06:09:52.607Z,92.17
2023-02-18T06:13:53.974Z,92.54
2023-02-18T06:17:55.358Z,92.25
2023-02-18T06:21:56.734Z,91.66
2023-02-18T06:25:59.561Z,89.90
2023-02-18T06:30:01.135Z,90.14
2023-02-18T06:34:02.555Z,89.21
2023-02-18T06:38:03.953Z,88.67
2023-02-18T06:42:06.695Z,87.97
2023-02-18T06:46:08.441Z,87.50
2023-02-18T06:50:10.442Z,86.99
2023-02-18T06:54:11.818Z,86.32
2023-02-18T06:58:15.084Z,86.31
2023-02-18T07:02:16.474Z,85.88
2023-02-18T07:06:17.841Z,85.79
2023-02-18T07:10:19.277Z,84.90
2023-02-18T07:14:22.032Z,85.14
2023-02-18T07:18:23.395Z,83.78
2023-02-18T07:22:24.788Z,83.78
2023-02-18T07:26:26.168Z,84.45
2023-02-18T07:30:28.945Z,83.50
2023-02-18T07:34:30.442Z,82.72
2023-02-18T07:38:31.847Z,82.88
2023-02-18T07:42:33.216Z,82.99
2023-02-18T07:46:39.385Z,83.63
2023-02-18T07:50:43.795Z,84.13
2023-02-18T07:54:45.150Z,84.25
2023-02-18T07:58:46.519Z,84.62
2023-02-18T08:02:49.238Z,85.07
2023-02-18T08:06:52.238Z,84.80
2023-02-18T08:10:57.849Z,83.17
2023-02-18T08:14:59.985Z,81.14
2023-02-18T08:19:03.321Z,78.99
2023-02-18T08:23:07.488Z,79.75
2023-02-18T08:27:08.853Z,76.90
2023-02-18T08:31:17.389Z,77.25
2023-02-18T08:35:20.340Z,76.43
2023-02-18T08:39:21.800Z,75.78
2023-02-18T08:43:23.210Z,75.63
2023-02-18T08:48:17.564Z,75.50
2023-02-18T08:51:47.954Z,75.30
2023-02-18T08:55:49.590Z,75.45
2023-02-18T08:59:51.072Z,75.05
2023-02-18T09:03:52.767Z,75.33
2023-02-18T09:07:55.680Z,75.23
2023-02-18T09:11:57.552Z,76.71
2023-02-18T09:16:00.516Z,76.09
2023-02-18T09:20:02.731Z,75.57
2023-02-18T09:24:06.076Z,74.90
2023-02-18T09:28:07.622Z,75.44
2023-02-18T09:32:09.767Z,75.24
2023-02-18T09:36:11.344Z,75.12
2023-02-18T09:40:25.208Z,74.20
2023-02-18T09:44:29.225Z,73.79
2023-02-18T09:48:33.740Z,74.36
2023-02-18T09:52:37.891Z,74.08
2023-02-18T09:56:42.801Z,73.05
2023-02-18T10:00:48.873Z,72.94
2023-02-18T10:04:51.393Z,73.23
2023-02-18T10:08:54.880Z,73.43
2023-02-18T10:12:58.853Z,73.41
2023-02-18T10:17:00.425Z,73.79
2023-02-18T10:21:06.737Z,75.49
2023-02-18T10:25:08.999Z,74.52
2023-02-18T10:29:16.180Z,74.38
2023-02-18T10:33:33.580Z,74.73
2023-02-18T10:37:58.574Z,75.09
2023-02-18T10:42:13.725Z,74.67
2023-02-18T10:46:22.505Z,74.10
2023-02-18T10:50:29.485Z,74.44
2023-02-18T10:54:49.266Z,74.18
2023-02-18T10:58:50.643Z,76.19
2023-02-18T11:03:14.024Z,79.62
2023-02-18T11:07:19.075Z,81.65
2023-02-18T11:11:24.426Z,83.36
2023-02-18T11:15:27.937Z,84.20
2023-02-18T11:19:35.828Z,84.50
2023-02-18T11:23:47.123Z,84.74
2023-02-18T11:27:52.072Z,84.68
2023-02-18T11:31:56.590Z,85.71
2023-02-18T11:36:05.129Z,86.92
2023-02-18T11:40:07.623Z,88.21
2023-02-18T11:44:21.099Z,89.32
2023-02-18T11:48:23.962Z,89.65
2023-02-18T11:52:28.505Z,90.20
2023-02-18T11:56:32.830Z,90.08
2023-02-18T12:00:38.689Z,89.70
2023-02-18T12:04:43.284Z,89.87
2023-02-18T12:08:51.123Z,90.45
2023-02-18T12:12:58.352Z,89.99
2023-02-18T12:17:21.594Z,90.69
2023-02-18T12:21:34.370Z,90.91
2023-02-18T12:25:47.059Z,91.57
2023-02-18T12:30:03.304Z,90.39
2023-02-18T12:34:25.921Z,90.04
2023-02-18T12:38:48.091Z,89.26
2023-02-18T12:43:05.090Z,89.41
2023-02-18T12:47:29.508Z,87.81
2023-02-18T12:51:42.526Z,88.78
2023-02-18T12:55:56.216Z,89.05
2023-02-18T13:00:31.983Z,89.32
2023-02-18T13:04:47.748Z,89.81
2023-02-18T13:09:03.145Z,89.48
2023-02-18T13:13:11.215Z,88.63
2023-02-18T13:17:17.800Z,87.67
2023-02-18T13:21:19.311Z,88.55
2023-02-18T13:25:21.876Z,88.37
2023-02-18T13:29:29.511Z,88.41
2023-02-18T13:33:41.424Z,88.93
2023-02-18T13:37:57.324Z,89.44
2023-02-18T13:42:24.103Z,89.27
2023-02-18T13:46:25.641Z,89.81
2023-02-18T13:50:39.376Z,89.01
2023-02-18T13:54:44.328Z,89.76
2023-02-18T13:58:50.331Z,89.81
2023-02-18T14:03:01.217Z,89.69
2023-02-18T14:07:29.609Z,89.83
2023-02-18T14:11:41.770Z,89.06
2023-02-18T14:15:59.829Z,88.47
2023-02-18T14:20:28.015Z,87.76
2023-02-18T14:24:48.730Z,87.40
2023-02-18T14:28:54.480Z,86.64
2023-02-18T14:32:59.074Z,86.26
2023-02-18T14:37:21.813Z,87.08
2023-02-18T14:41:38.095Z,86.81
2023-02-18T14:46:00.632Z,87.02
2023-02-18T14:50:04.380Z,87.76
2023-02-18T14:54:13.355Z,87.90
2023-02-18T14:58:28.927Z,87.82
2023-02-18T15:02:30.299Z,87.36
2023-02-18T15:06:33.401Z,88.27
2023-02-18T15:10:38.939Z,88.11
2023-02-18T15:14:43.769Z,87.56
2023-02-18T15:18:51.226Z,87.13
2023-02-18T15:22:52.815Z,87.40
2023-02-18T15:26:56.714Z,87.34
2023-02-18T15:31:01.048Z,86.71
2023-02-18T15:35:13.824Z,86.90
2023-02-18T15:39:15.391Z,87.23
2023-02-18T15:43:21.739Z,88.20
2023-02-18T15:47:25.179Z,88.28
2023-02-18T15:51:29.992Z,89.12
2023-02-18T15:55:34.034Z,89.80
2023-02-18T15:59:42.852Z,89.25
2023-02-18T16:03:46.576Z,89.59
2023-02-18T16:07:53.505Z,89.34
2023-02-18T16:11:57.459Z,89.62
2023-02-18T16:16:01.116Z,88.85
2023-02-18T16:20:18.623Z,88.83
2023-02-18T16:24:24.638Z,88.99
2023-02-18T16:28:32.679Z,88.72
2023-02-18T16:32:34.200Z,88.08
2023-02-18T16:36:37.068Z,87.95
2023-02-18T16:40:40.069Z,87.53
2023-02-18T16:44:41.471Z,87.73
2023-02-18T16:48:45.242Z,87.85
2023-02-18T16:52:48.580Z,87.04
2023-02-18T16:56:49.982Z,87.23
2023-02-18T17:00:51.775Z,87.04
2023-02-18T17:04:53.147Z,86.88
2023-02-18T17:08:56.177Z,86.54
2023-02-18T17:12:57.710Z,86.63
2023-02-18T17:16:59.188Z,87.09
2023-02-18T17:21:00.834Z,87.10
2023-02-18T17:25:11.782Z,86.76
2023-02-18T17:29:13.240Z,87.09
2023-02-18T17:33:17.916Z,86.86
2023-02-18T17:37:19.314Z,86.60
2023-02-18T17:41:22.081Z,87.53
2023-02-18T17:45:27.554Z,90.61
2023-02-18T17:49:29.034Z,92.30
2023-02-18T17:53:30.410Z,92.86
2023-02-18T17:57:33.151Z,93.57
2023-02-18T18:01:34.780Z,93.76
2023-02-18T18:05:38.977Z,94.14
2023-02-18T18:09:40.456Z,94.25
2023-02-18T18:13:43.534Z,94.13
2023-02-18T18:17:45.268Z,93.85
2023-02-18T18:21:46.715Z,93.60
2023-02-18T18:25:49.844Z,93.38
2023-02-18T18:29:53.086Z,93.51
2023-02-18T18:33:54.700Z,93.40
2023-02-18T18:37:56.810Z,93.22
2023-02-18T18:41:58.248Z,92.64
2023-02-18T18:46:01.380Z,91.86
2023-02-18T18:50:02.812Z,92.35
2023-02-18T18:54:04.643Z,92.51
2023-02-18T18:58:06.250Z,92.44
2023-02-18T19:02:19.721Z,91.39
2023-02-18T19:06:21.696Z,91.32
2023-02-18T19:10:23.227Z,91.04
2023-02-18T19:14:24.590Z,90.78
2023-02-18T19:18:27.534Z,90.83
2023-02-18T19:22:29.001Z,90.80
2023-02-18T19:26:30.556Z,90.65
2023-02-18T19:30:34.286Z,89.85
2023-02-18T19:34:37.069Z,89.87
2023-02-18T19:38:38.981Z,89.52
2023-02-18T19:42:42.114Z,88.90
2023-02-18T19:46:43.577Z,89.11
2023-02-18T19:50:46.463Z,88.60
2023-02-18T19:54:47.975Z,88.68
2023-02-18T19:58:49.436Z,88.29
2023-02-18T20:02:51.236Z,89.22
2023-02-18T20:06:54.092Z,89.23
2023-02-18T20:10:56.866Z,89.61
2023-02-18T20:14:58.386Z,89.25
2023-02-18T20:18:59.920Z,89.12
2023-02-18T20:23:02.636Z,88.59
2023-02-18T20:27:04.101Z,88.55
2023-02-18T20:31:06.862Z,88.39
2023-02-18T20:35:08.416Z,88.47
2023-02-18T20:39:16.288Z,88.88
2023-02-18T20:43:18.412Z,88.48
2023-02-18T20:47:19.963Z,88.34
2023-02-18T20:51:22.455Z,88.44
2023-02-18T20:55:25.434Z,89.01
2023-02-18T20:59:26.883Z,88.62
2023-02-18T21:03:28.657Z,88.16
2023-02-18T21:07:30.044Z,87.95
2023-02-18T21:11:33.516Z,87.95
2023-02-18T21:15:36.718Z,88.45
2023-02-18T21:19:38.176Z,89.40
2023-02-18T21:23:40.599Z,89.58
2023-02-18T21:27:43.358Z,89.72
2023-02-18T21:31:45.214Z,89.76
2023-02-18T21:35:46.679Z,90.77
2023-02-18T21:39:48.067Z,91.39
2023-02-18T21:43:51.266Z,91.16
2023-02-18T21:47:53.526Z,90.00
2023-02-18T21:51:54.989Z,90.06
2023-02-18T21:56:03.660Z,89.53
2023-02-18T22:00:19.651Z,89.67
2023-02-18T22:04:22.545Z,89.62
2023-02-18T22:08:25.213Z,90.24
2023-02-18T22:12:26.786Z,91.73
2023-02-18T22:16:30.262Z,92.56
2023-02-18T22:20:31.831Z,93.88
2023-02-18T22:24:33.554Z,94.80
2023-02-18T22:28:35.708Z,95.47
2023-02-18T22:32:38.420Z,95.84
2023-02-18T22:36:39.860Z,96.82
2023-02-18T22:40:41.237Z,97.15
2023-02-18T22:44:42.695Z,97.52
2023-02-18T22:48:45.433Z,98.13
2023-02-18T22:52:46.950Z,98.15
2023-02-18T22:56:48.896Z,98.51
2023-02-18T23:00:50.375Z,98.49
2023-02-18T23:04:53.228Z,98.46
2023-02-18T23:08:54.801Z,98.36
2023-02-18T23:12:56.184Z,98.38
2023-02-18T23:16:58.971Z,98.46
2023-02-18T23:21:03.758Z,98.69
2023-02-18T23:25:06.139Z,98.74
2023-02-18T23:29:07.684Z,98.78
2023-02-18T23:33:09.274Z,98.85
2023-02-18T23:37:12.384Z,98.97
2023-02-18T23:41:13.784Z,98.78
2023-02-18T23:45:15.386Z,98.63
2023-02-18T23:49:18.693Z,98.59
2023-02-18T23:53:25.182Z,98.54
2023-02-18T23:57:30.722Z,98.24
